Excellence — KTDP — position and weather

sailwx.info

Track history (hours):
 
Tides and Currents Weather Stations Pressure Air Temp Water Temp Dewpoint Dewpoint Depression Visibility Wind Speed Wind Dir Waves Ship Positions

Excellence

Owner: AJVS, INC, Seattle, WA. More information available from US FCC via Universal Licensing System and Coast Guard Vessel Documentation Center.

Last reported at 2018-Jan-18 18:04 UTC. Time now 2018-Feb-21 13:22 UTC.
Position N 49°02' W 126°38'.
Warning: this ship's position is 33 days out of date.

Length 112 m; draft 6 m.

Type: Other ship. MMSI: 338162000.

Date/timePositionNaut miles runAvg speedWind from/ knotsBaromVisibWave heightAir tempDewpointWater temp
2018-Jan-18 18:04N 49°02' W 126°38'110.3
2018-Jan-18 18:00N 49°02' W 126°37'611.0
2018-Jan-18 17:28N 48°59' W 126°29'511.1
2018-Jan-18 17:00N 48°57' W 126°22'611.2
2018-Jan-18 16:30N 48°54' W 126°15'611.0
2018-Jan-18 16:00N 48°51' W 126°07'610.9
2018-Jan-18 15:29N 48°49' W 125°60'510.6
2018-Jan-18 15:00N 48°46' W 125°53'510.4
2018-Jan-18 14:30N 48°44' W 125°46'5 9.7
2018-Jan-18 14:00N 48°42' W 125°39'510.0
2018-Jan-18 13:30N 48°40' W 125°32'510.3
2018-Jan-18 13:00N 48°38' W 125°25'5 9.7
2018-Jan-18 12:30N 48°36' W 125°19'5 9.5
2018-Jan-18 12:00N 48°34' W 125°12'5 9.7
2018-Jan-18 11:29N 48°32' W 125°05'4 8.6
2018-Jan-18 11:00N 48°32' W 124°59'4 8.8
2018-Jan-18 10:30N 48°32' W 124°52'5 9.2
2018-Jan-18 10:00N 48°31' W 124°45'4 8.7
2018-Jan-18 09:30N 48°30' W 124°39'5 9.4
2018-Jan-18 09:00N 48°28' W 124°32'510.7
2018-Jan-18 08:30N 48°25' W 124°25'611.2
2018-Jan-18 08:00N 48°23' W 124°17'611.9
2018-Jan-18 07:30N 48°21' W 124°09'612.1
2018-Jan-18 07:00N 48°19' W 124°00'712.7
2018-Jan-18 06:29N 48°17' W 123°51'714.4
2018-Jan-18 06:00N 48°16' W 123°41'815.3
2018-Jan-18 05:28N 48°15' W 123°29'714.3
2018-Jan-18 05:00N 48°14' W 123°19'713.5
2018-Jan-18 04:29N 48°13' W 123°08'713.7
2018-Jan-18 03:58N 48°12' W 122°58'914.3
2018-Jan-18 03:21N 48°10' W 122°45'615.1
2018-Jan-18 02:58N 48°06' W 122°39'714.8
2018-Jan-18 02:30N 47°60' W 122°36'713.9
2018-Jan-18 02:00N 47°55' W 122°29'713.2
2018-Jan-18 01:30N 47°48' W 122°27'612.0
2018-Jan-18 01:00N 47°42' W 122°27'5 5.2
2018-Jan-17 23:59N 47°38' W 122°23'0 0.0
2018-Jan-17 23:56N 47°38' W 122°23'  
2018-Jan-09 14:23N 47°38' W 122°23'0 0.0
2018-Jan-09 14:00N 47°38' W 122°23'0 0.0
2018-Jan-09 13:30N 47°38' W 122°23'0 0.0
2018-Jan-09 13:00N 47°38' W 122°23'0 0.0
2018-Jan-09 12:30N 47°38' W 122°23'0 0.0
2018-Jan-09 12:00N 47°38' W 122°23'0 0.0
2018-Jan-09 11:30N 47°38' W 122°23'0 0.0
2018-Jan-09 11:00N 47°38' W 122°23'0 0.0
2018-Jan-09 10:30N 47°38' W 122°23'0 0.0
2018-Jan-09 10:00N 47°38' W 122°23'0 0.0
2018-Jan-09 09:30N 47°38' W 122°23'0 0.0
2018-Jan-09 09:00N 47°38' W 122°23'0 0.0
2018-Jan-09 08:30N 47°38' W 122°23'0 0.0
2018-Jan-09 08:00N 47°38' W 122°23'0 0.0
2018-Jan-09 07:30N 47°38' W 122°23'0 0.0
2018-Jan-09 07:00N 47°38' W 122°23'0 0.0
2018-Jan-09 06:30N 47°38' W 122°23'0 0.0
2018-Jan-09 06:00N 47°38' W 122°23'0 0.0
2018-Jan-09 05:30N 47°38' W 122°23'0 0.0
2018-Jan-09 05:00N 47°38' W 122°23'0 0.0
2018-Jan-09 04:30N 47°38' W 122°23'0 0.0
2018-Jan-09 04:00N 47°38' W 122°23'0 0.0
2018-Jan-09 03:30N 47°38' W 122°23'0 0.0
2018-Jan-09 03:00N 47°38' W 122°23'0 0.0
2018-Jan-09 02:30N 47°38' W 122°23'0 0.0
2018-Jan-09 02:00N 47°38' W 122°23'0 0.0
2018-Jan-09 01:30N 47°38' W 122°23'0 0.0
2018-Jan-09 01:00N 47°38' W 122°23'0 0.0
2018-Jan-09 00:30N 47°38' W 122°23'0 0.0
2018-Jan-09 00:00N 47°38' W 122°23'0 0.0
2018-Jan-08 23:30N 47°38' W 122°23'0 0.0
2018-Jan-08 23:00N 47°38' W 122°23'0 0.0
2018-Jan-08 22:30N 47°38' W 122°23'0 0.0
2018-Jan-08 22:00N 47°38' W 122°23'0 0.0
2018-Jan-08 21:30N 47°38' W 122°23'  
Track history (hours):
 
Tides and Currents Weather Stations Pressure Air Temp Water Temp Dewpoint Dewpoint Depression Visibility Wind Speed Wind Dir Waves Ship Positions

Excellence

Owner: AJVS, INC, Seattle, WA. More information available from US FCC via Universal Licensing System and Coast Guard Vessel Documentation Center.

Last reported at 2018-Jan-18 18:04 UTC. Time now 2018-Feb-21 13:22 UTC.
Position N 49°02' W 126°38'.
Warning: this ship's position is 33 days out of date.

Length 112 m; draft 6 m.

Type: Other ship. MMSI: 338162000.

Date/timePositionNaut miles runAvg speedWind from/ knotsBaromVisibWave heightAir tempDewpointWater temp
2018-Jan-18 18:04N 49°02' W 126°38'110.3
2018-Jan-18 18:00N 49°02' W 126°37'611.0
2018-Jan-18 17:28N 48°59' W 126°29'511.1
2018-Jan-18 17:00N 48°57' W 126°22'611.2
2018-Jan-18 16:30N 48°54' W 126°15'611.0
2018-Jan-18 16:00N 48°51' W 126°07'610.9
2018-Jan-18 15:29N 48°49' W 125°60'510.6
2018-Jan-18 15:00N 48°46' W 125°53'510.4
2018-Jan-18 14:30N 48°44' W 125°46'5 9.7
2018-Jan-18 14:00N 48°42' W 125°39'510.0
2018-Jan-18 13:30N 48°40' W 125°32'510.3
2018-Jan-18 13:00N 48°38' W 125°25'5 9.7
2018-Jan-18 12:30N 48°36' W 125°19'5 9.5
2018-Jan-18 12:00N 48°34' W 125°12'5 9.7
2018-Jan-18 11:29N 48°32' W 125°05'4 8.6
2018-Jan-18 11:00N 48°32' W 124°59'4 8.8
2018-Jan-18 10:30N 48°32' W 124°52'5 9.2
2018-Jan-18 10:00N 48°31' W 124°45'4 8.7
2018-Jan-18 09:30N 48°30' W 124°39'5 9.4
2018-Jan-18 09:00N 48°28' W 124°32'510.7
2018-Jan-18 08:30N 48°25' W 124°25'611.2
2018-Jan-18 08:00N 48°23' W 124°17'611.9
2018-Jan-18 07:30N 48°21' W 124°09'612.1
2018-Jan-18 07:00N 48°19' W 124°00'712.7
2018-Jan-18 06:29N 48°17' W 123°51'714.4
2018-Jan-18 06:00N 48°16' W 123°41'815.3
2018-Jan-18 05:28N 48°15' W 123°29'714.3
2018-Jan-18 05:00N 48°14' W 123°19'713.5
2018-Jan-18 04:29N 48°13' W 123°08'713.7
2018-Jan-18 03:58N 48°12' W 122°58'914.3
2018-Jan-18 03:21N 48°10' W 122°45'615.1
2018-Jan-18 02:58N 48°06' W 122°39'714.8
2018-Jan-18 02:30N 47°60' W 122°36'713.9
2018-Jan-18 02:00N 47°55' W 122°29'713.2
2018-Jan-18 01:30N 47°48' W 122°27'612.0
2018-Jan-18 01:00N 47°42' W 122°27'5 5.2
2018-Jan-17 23:59N 47°38' W 122°23'0 0.0
2018-Jan-17 23:56N 47°38' W 122°23'  
2018-Jan-09 14:23N 47°38' W 122°23'0 0.0
2018-Jan-09 14:00N 47°38' W 122°23'0 0.0
2018-Jan-09 13:30N 47°38' W 122°23'0 0.0
2018-Jan-09 13:00N 47°38' W 122°23'0 0.0
2018-Jan-09 12:30N 47°38' W 122°23'0 0.0
2018-Jan-09 12:00N 47°38' W 122°23'0 0.0
2018-Jan-09 11:30N 47°38' W 122°23'0 0.0
2018-Jan-09 11:00N 47°38' W 122°23'0 0.0
2018-Jan-09 10:30N 47°38' W 122°23'0 0.0
2018-Jan-09 10:00N 47°38' W 122°23'0 0.0
2018-Jan-09 09:30N 47°38' W 122°23'0 0.0
2018-Jan-09 09:00N 47°38' W 122°23'0 0.0
2018-Jan-09 08:30N 47°38' W 122°23'0 0.0
2018-Jan-09 08:00N 47°38' W 122°23'0 0.0
2018-Jan-09 07:30N 47°38' W 122°23'0 0.0
2018-Jan-09 07:00N 47°38' W 122°23'0 0.0
2018-Jan-09 06:30N 47°38' W 122°23'0 0.0
2018-Jan-09 06:00N 47°38' W 122°23'0 0.0
2018-Jan-09 05:30N 47°38' W 122°23'0 0.0
2018-Jan-09 05:00N 47°38' W 122°23'0 0.0
2018-Jan-09 04:30N 47°38' W 122°23'0 0.0
2018-Jan-09 04:00N 47°38' W 122°23'0 0.0
2018-Jan-09 03:30N 47°38' W 122°23'0 0.0
2018-Jan-09 03:00N 47°38' W 122°23'0 0.0
2018-Jan-09 02:30N 47°38' W 122°23'0 0.0
2018-Jan-09 02:00N 47°38' W 122°23'0 0.0
2018-Jan-09 01:30N 47°38' W 122°23'0 0.0
2018-Jan-09 01:00N 47°38' W 122°23'0 0.0
2018-Jan-09 00:30N 47°38' W 122°23'0 0.0
2018-Jan-09 00:00N 47°38' W 122°23'0 0.0
2018-Jan-08 23:30N 47°38' W 122°23'0 0.0
2018-Jan-08 23:00N 47°38' W 122°23'0 0.0
2018-Jan-08 22:30N 47°38' W 122°23'0 0.0
2018-Jan-08 22:00N 47°38' W 122°23'0 0.0
2018-Jan-08 21:30N 47°38' W 122°23'  

Dump ship's entire track history